Time;durP1;ratioP1;P1;durP2;ratioP2;P2;SDS_P1;SDS_P2;PMS_P1;PMS_P2;Temp;Humidity;BMP_temperature;BMP_pressure;BME280_temperature;BME280_humidity;BME280_pressure;Samples;Min_cycle;Max_cycle;Signal;HPM_P1;HPM_P2
2022/12/01 00:06:37;;;;;;;;;;;;;;;;;;6143020;23;19987;-77
2022/12/01 00:11:48;;;;;;;;;;;;;;;;;;6167948;23;20002;-78
2022/12/01 00:14:15;;;;;;;;;;;;;;;;;;6120513;23;19928;-77
2022/12/01 00:16:43;;;;;;;;;;;;;;;;;;6145848;23;20058;-76
2022/12/01 00:19:09;;;;;;;;;;;;;;;;;;6119551;23;20259;-77
2022/12/01 00:21:35;;;;;;;;;;;;;;;;;;6120628;23;19916;-77
2022/12/01 00:24:00;;;;;;;;;;;;;;;;;;6120810;23;19916;-77
2022/12/01 00:26:26;;;;;;;;;;;;;;;;;;6145277;23;19942;-77
2022/12/01 00:28:52;;;;;;;;;;;;;;;;;;6120077;23;19923;-77
2022/12/01 00:31:18;;;;;;;;;;;;;;;;;;6120493;23;19924;-78
2022/12/01 00:33:44;;;;;;;;;;;;;;;;;;6120826;23;19922;-78
2022/12/01 00:36:10;;;;;;;;;;;;;;;;;;6120828;23;19916;-77
2022/12/01 00:38:36;;;;;;;;;;;;;;;;;;6120466;23;19912;-78
2022/12/01 00:41:02;;;;;;;;;;;;;;;;;;6119736;23;19920;-77
2022/12/01 00:43:28;;;;;;;;;;;;;;;;;;6120682;23;19916;-78
2022/12/01 00:45:55;;;;;;;;;;;;;;;;;;6145163;23;19930;-78
2022/12/01 00:48:21;;;;;;;;;;;;;;;;;;6120044;23;19924;-78
2022/12/01 00:50:47;;;;;;;;;;;;;;;;;;6120407;23;19916;-78
2022/12/01 00:53:13;;;;;;;;;;;;;;;;;;6119043;23;20319;-78
2022/12/01 00:55:39;;;;;;;;;;;;;;;;;;6120094;23;19983;-77
2022/12/01 00:58:06;;;;;;;;;;;;;;;;;;6119862;23;19916;-77
2022/12/01 01:00:32;;;;;;;;;;;;;;;;;;6120245;23;19969;-77
2022/12/01 01:02:58;;;;;;;;;;;;;;;;;;6143342;23;20008;-78
2022/12/01 01:05:24;;;;;;;;;;;;;;;;;;6120194;23;19920;-78
2022/12/01 01:07:49;;;;;;;;;;;;;;;;;;6120062;23;19916;-77
2022/12/01 01:10:15;;;;;;;;;;;;;;;;;;6144743;23;19978;-78
2022/12/01 01:12:41;;;;;;;;;;;;;;;;;;6144525;23;20735;-78
2022/12/01 01:15:07;;;;;;;;;;;;;;;;;;6119544;23;19912;-77
2022/12/01 01:17:33;;;;;;;;;;;;;;;;;;6144606;23;20260;-77
2022/12/01 01:19:59;;;;;;;;;;;;;;;;;;6144643;23;19916;-77
2022/12/01 01:22:25;;;;;;;;;;;;;;;;;;6144300;23;19916;-78
2022/12/01 01:24:51;;;;;;;;;;;;;;;;;;6143747;23;20406;-78
2022/12/01 01:27:17;;;;;;;;;;;;;;;;;;6145497;23;19923;-78
2022/12/01 01:29:43;;;;;;;;;;;;;;;;;;6120250;23;19916;-78
2022/12/01 01:32:09;;;;;;;;;;;;;;;;;;6115477;23;19920;-77
2022/12/01 01:34:35;;;;;;;;;;;;;;;;;;6118193;23;19916;-77
2022/12/01 01:37:01;;;;;;;;;;;;;;;;;;6119736;23;19965;-77
2022/12/01 01:39:27;;;;;;;;;;;;;;;;;;6144030;23;19915;-77
2022/12/01 01:41:53;;;;;;;;;;;;;;;;;;6118654;23;19990;-77
2022/12/01 01:44:19;;;;;;;;;;;;;;;;;;6119498;23;19924;-77
2022/12/01 01:46:45;;;;;;;;;;;;;;;;;;6144629;23;19916;-78
2022/12/01 01:49:11;;;;;;;;;;;;;;;;;;6143343;23;19971;-77
2022/12/01 01:51:37;;;;;;;;;;;;;;;;;;6118779;23;19916;-77
2022/12/01 01:54:02;;;;;;;;;;;;;;;;;;6143223;23;20331;-77
2022/12/01 01:56:28;;;;;;;;;;;;;;;;;;6143978;23;19920;-76
2022/12/01 01:58:54;;;;;;;;;;;;;;;;;;6118904;23;19923;-77
2022/12/01 02:01:20;;;;;;;;;;;;;;;;;;6118313;23;19975;-76
2022/12/01 02:03:46;;;;;;;;;;;;;;;;;;6118831;23;19923;-77
2022/12/01 02:06:12;;;;;;;;;;;;;;;;;;6113834;23;19927;-77
2022/12/01 02:08:38;;;;;;;;;;;;;;;;;;6162509;23;19987;-77
2022/12/01 02:11:05;;;;;;;;;;;;;;;;;;6163131;23;20327;-77
2022/12/01 02:13:31;;;;;;;;;;;;;;;;;;6114207;23;19924;-76
2022/12/01 02:15:56;;;;;;;;;;;;;;;;;;6162474;23;20328;-77
2022/12/01 02:18:23;;;;;;;;;;;;;;;;;;6114926;23;19916;-77
2022/12/01 02:20:49;;;;;;;;;;;;;;;;;;6165621;23;20263;-77
2022/12/01 02:23:15;;;;;;;;;;;;;;;;;;6115017;23;19921;-77
2022/12/01 02:25:41;;;;;;;;;;;;;;;;;;6115316;23;19922;-77
2022/12/01 02:28:07;;;;;;;;;;;;;;;;;;6114847;23;20058;-77
2022/12/01 02:30:33;;;;;;;;;;;;;;;;;;6115822;23;19917;-78
2022/12/01 02:32:59;;;;;;;;;;;;;;;;;;6165545;23;19944;-77
2022/12/01 02:35:25;;;;;;;;;;;;;;;;;;6165063;23;20035;-77
2022/12/01 02:37:51;;;;;;;;;;;;;;;;;;6165156;23;19923;-77
2022/12/01 02:40:17;;;;;;;;;;;;;;;;;;6115223;23;20117;-77
2022/12/01 02:42:49;;;;;;;;;;;;;;;;;;6115449;23;19916;-78
2022/12/01 02:45:15;;;;;;;;;;;;;;;;;;6162761;23;20252;-77
2022/12/01 02:47:40;;;;;;;;;;;;;;;;;;6165906;23;19916;-77
2022/12/01 02:50:06;;;;;;;;;;;;;;;;;;6164159;23;20015;-77
2022/12/01 02:52:32;;;;;;;;;;;;;;;;;;6165555;23;19921;-77
2022/12/01 02:54:58;;;;;;;;;;;;;;;;;;6115598;23;19916;-77
2022/12/01 02:57:24;;;;;;;;;;;;;;;;;;6164577;23;19923;-77
2022/12/01 02:59:50;;;;;;;;;;;;;;;;;;6114517;23;19936;-77
2022/12/01 03:02:16;;;;;;;;;;;;;;;;;;6141969;23;20318;-77
2022/12/01 03:04:42;;;;;;;;;;;;;;;;;;6115048;23;19920;-77
2022/12/01 03:07:08;;;;;;;;;;;;;;;;;;6115680;23;19928;-77
2022/12/01 03:09:34;;;;;;;;;;;;;;;;;;6115758;23;19948;-77
2022/12/01 03:12:00;;;;;;;;;;;;;;;;;;6116414;23;19925;-78
2022/12/01 03:14:26;;;;;;;;;;;;;;;;;;6091995;23;20362;-77
2022/12/01 03:16:52;;;;;;;;;;;;;;;;;;6117135;23;19916;-77
2022/12/01 03:19:18;;;;;;;;;;;;;;;;;;6115489;23;19998;-78
2022/12/01 03:21:44;;;;;;;;;;;;;;;;;;6092189;23;20241;-77
2022/12/01 03:24:10;;;;;;;;;;;;;;;;;;6116210;23;19927;-77
2022/12/01 03:26:36;;;;;;;;;;;;;;;;;;6092389;23;19931;-77
2022/12/01 03:29:02;;;;;;;;;;;;;;;;;;6091515;23;20395;-78
2022/12/01 03:31:28;;;;;;;;;;;;;;;;;;6116765;23;19960;-78
2022/12/01 03:33:54;;;;;;;;;;;;;;;;;;6090775;23;20485;-78
2022/12/01 03:36:20;;;;;;;;;;;;;;;;;;6115415;23;19948;-77
2022/12/01 03:38:46;;;;;;;;;;;;;;;;;;6115929;23;19917;-77
2022/12/01 03:41:12;;;;;;;;;;;;;;;;;;6091763;23;19916;-77
2022/12/01 03:43:38;;;;;;;;;;;;;;;;;;6091458;23;20558;-78
2022/12/01 03:46:04;;;;;;;;;;;;;;;;;;6091016;23;19927;-77
2022/12/01 03:48:30;;;;;;;;;;;;;;;;;;6091209;23;19916;-78
2022/12/01 03:50:56;;;;;;;;;;;;;;;;;;6091422;23;19923;-78
2022/12/01 03:53:22;;;;;;;;;;;;;;;;;;6115805;23;19916;-78
2022/12/01 03:55:48;;;;;;;;;;;;;;;;;;6090840;23;20294;-77
2022/12/01 03:58:14;;;;;;;;;;;;;;;;;;6091274;23;19928;-76
2022/12/01 04:00:40;;;;;;;;;;;;;;;;;;6090591;23;19916;-77
2022/12/01 04:03:06;;;;;;;;;;;;;;;;;;6115531;23;20344;-77
2022/12/01 04:05:32;;;;;;;;;;;;;;;;;;6115925;23;19979;-78
2022/12/01 04:07:58;;;;;;;;;;;;;;;;;;6130522;23;20322;-78
2022/12/01 04:10:24;;;;;;;;;;;;;;;;;;6090694;23;19972;-77
2022/12/01 04:12:50;;;;;;;;;;;;;;;;;;6091688;23;19928;-77
2022/12/01 04:15:16;;;;;;;;;;;;;;;;;;6091643;23;19927;-78
2022/12/01 04:17:42;;;;;;;;;;;;;;;;;;6090273;23;19916;-78
2022/12/01 04:20:09;;;;;;;;;;;;;;;;;;6090984;23;19983;-77
2022/12/01 04:22:35;;;;;;;;;;;;;;;;;;6090514;23;19922;-78
2022/12/01 04:25:01;;;;;;;;;;;;;;;;;;6091091;23;20510;-78
2022/12/01 04:27:27;;;;;;;;;;;;;;;;;;6090747;23;19916;-77
2022/12/01 04:29:53;;;;;;;;;;;;;;;;;;6090555;23;20359;-77
2022/12/01 04:32:19;;;;;;;;;;;;;;;;;;6090824;23;19916;-78
2022/12/01 04:34:45;;;;;;;;;;;;;;;;;;6090467;23;20011;-78
2022/12/01 04:37:11;;;;;;;;;;;;;;;;;;6090870;23;19923;-77
2022/12/01 04:39:37;;;;;;;;;;;;;;;;;;6089783;23;19959;-77
2022/12/01 04:42:03;;;;;;;;;;;;;;;;;;6140290;23;19916;-77
2022/12/01 04:44:28;;;;;;;;;;;;;;;;;;6089575;23;20260;-77
2022/12/01 04:46:54;;;;;;;;;;;;;;;;;;6090596;23;19921;-78
2022/12/01 04:49:20;;;;;;;;;;;;;;;;;;6091237;23;19916;-78
2022/12/01 04:51:46;;;;;;;;;;;;;;;;;;6091700;23;19979;-78
2022/12/01 04:54:12;;;;;;;;;;;;;;;;;;6090808;23;20580;-77
2022/12/01 04:56:38;;;;;;;;;;;;;;;;;;6090791;23;19916;-77
2022/12/01 04:59:04;;;;;;;;;;;;;;;;;;6139561;23;20295;-78
2022/12/01 05:01:30;;;;;;;;;;;;;;;;;;6090055;23;19917;-77
2022/12/01 05:03:56;;;;;;;;;;;;;;;;;;6139239;23;19920;-77
2022/12/01 05:06:22;;;;;;;;;;;;;;;;;;6091780;23;19917;-77
2022/12/01 05:08:48;;;;;;;;;;;;;;;;;;6145359;23;19915;-77
2022/12/01 05:11:14;;;;;;;;;;;;;;;;;;6144337;23;19990;-77
2022/12/01 05:13:40;;;;;;;;;;;;;;;;;;6120498;23;19952;-77
2022/12/01 05:16:06;;;;;;;;;;;;;;;;;;6118485;23;19912;-77
2022/12/01 05:18:32;;;;;;;;;;;;;;;;;;6144823;23;20316;-77
2022/12/01 05:20:58;;;;;;;;;;;;;;;;;;6144057;23;19920;-78
2022/12/01 05:23:24;;;;;;;;;;;;;;;;;;6118433;23;20004;-77
2022/12/01 05:25:49;;;;;;;;;;;;;;;;;;6119526;23;19916;-78
2022/12/01 05:28:15;;;;;;;;;;;;;;;;;;6119037;23;19916;-77
2022/12/01 05:30:41;;;;;;;;;;;;;;;;;;6144447;23;19923;-77
2022/12/01 05:33:07;;;;;;;;;;;;;;;;;;6143742;23;19916;-77
2022/12/01 05:35:33;;;;;;;;;;;;;;;;;;6144190;23;20062;-77
2022/12/01 05:37:59;;;;;;;;;;;;;;;;;;6119545;23;19916;-77
2022/12/01 05:40:25;;;;;;;;;;;;;;;;;;6140702;23;19939;-76
2022/12/01 05:42:51;;;;;;;;;;;;;;;;;;6117980;23;19916;-77
2022/12/01 05:45:17;;;;;;;;;;;;;;;;;;6115793;23;20310;-77
2022/12/01 05:47:43;;;;;;;;;;;;;;;;;;6141868;23;19916;-77
2022/12/01 05:50:09;;;;;;;;;;;;;;;;;;6120110;23;19923;-78
2022/12/01 05:52:35;;;;;;;;;;;;;;;;;;6119124;23;20549;-77
2022/12/01 05:55:01;;;;;;;;;;;;;;;;;;6142899;23;19916;-77
2022/12/01 05:57:27;;;;;;;;;;;;;;;;;;6117858;23;20303;-76
2022/12/01 05:59:53;;;;;;;;;;;;;;;;;;6143385;23;19916;-77
2022/12/01 06:02:18;;;;;;;;;;;;;;;;;;6142618;23;20338;-78
2022/12/01 06:04:44;;;;;;;;;;;;;;;;;;6143604;23;19927;-77
2022/12/01 06:07:10;;;;;;;;;;;;;;;;;;6117044;23;19924;-77
2022/12/01 06:09:36;;;;;;;;;;;;;;;;;;6143711;23;20382;-77
2022/12/01 06:12:02;;;;;;;;;;;;;;;;;;6142154;23;19923;-77
2022/12/01 06:14:28;;;;;;;;;;;;;;;;;;6143333;23;19927;-76
2022/12/01 06:16:54;;;;;;;;;;;;;;;;;;6116373;23;20264;-77
2022/12/01 06:19:20;;;;;;;;;;;;;;;;;;6117845;23;19919;-78
2022/12/01 06:21:46;;;;;;;;;;;;;;;;;;6144956;23;19975;-77
2022/12/01 06:24:12;;;;;;;;;;;;;;;;;;6144622;23;20674;-76
2022/12/01 06:26:38;;;;;;;;;;;;;;;;;;6118784;23;19923;-76
2022/12/01 06:29:04;;;;;;;;;;;;;;;;;;6118754;23;19920;-77
2022/12/01 06:31:30;;;;;;;;;;;;;;;;;;6143860;23;19916;-78
2022/12/01 06:33:56;;;;;;;;;;;;;;;;;;6119229;23;19916;-79
2022/12/01 06:36:22;;;;;;;;;;;;;;;;;;6144876;23;20097;-77
2022/12/01 06:38:48;;;;;;;;;;;;;;;;;;6142850;23;19939;-78
2022/12/01 06:41:14;;;;;;;;;;;;;;;;;;6143469;23;20344;-77
2022/12/01 06:43:40;;;;;;;;;;;;;;;;;;6142971;23;19927;-77
2022/12/01 06:46:05;;;;;;;;;;;;;;;;;;6143698;23;19923;-77
2022/12/01 06:48:32;;;;;;;;;;;;;;;;;;6144001;23;20314;-78
2022/12/01 06:50:57;;;;;;;;;;;;;;;;;;6143822;23;20445;-78
2022/12/01 06:53:26;;;;;;;;;;;;;;;;;;6119724;23;20694;-78
2022/12/01 06:55:52;;;;;;;;;;;;;;;;;;6119571;23;20685;-77
2022/12/01 06:58:17;;;;;;;;;;;;;;;;;;6144593;23;19948;-77
2022/12/01 07:00:43;;;;;;;;;;;;;;;;;;6118691;23;19919;-77
2022/12/01 07:03:09;;;;;;;;;;;;;;;;;;6141932;23;19952;-77
2022/12/01 07:05:35;;;;;;;;;;;;;;;;;;6146469;23;19922;-78
2022/12/01 07:08:01;;;;;;;;;;;;;;;;;;6140178;23;20356;-78
2022/12/01 07:10:27;;;;;;;;;;;;;;;;;;6090015;23;19952;-78
2022/12/01 07:12:53;;;;;;;;;;;;;;;;;;6090402;23;19942;-78
2022/12/01 07:15:19;;;;;;;;;;;;;;;;;;6116726;23;19916;-78
2022/12/01 07:17:45;;;;;;;;;;;;;;;;;;6110281;23;20011;-78
2022/12/01 07:20:11;;;;;;;;;;;;;;;;;;6111995;23;19967;-78
2022/12/01 07:22:38;;;;;;;;;;;;;;;;;;6088213;23;20393;-78
2022/12/01 07:25:04;;;;;;;;;;;;;;;;;;6089530;23;20419;-78
2022/12/01 07:27:30;;;;;;;;;;;;;;;;;;6091889;23;20320;-78
2022/12/01 07:29:56;;;;;;;;;;;;;;;;;;6091342;23;19920;-78
2022/12/01 07:32:22;;;;;;;;;;;;;;;;;;6115254;23;19917;-78
2022/12/01 07:34:48;;;;;;;;;;;;;;;;;;6114998;23;19916;-78
2022/12/01 07:37:14;;;;;;;;;;;;;;;;;;6112173;23;20469;-78
2022/12/01 07:39:39;;;;;;;;;;;;;;;;;;6116089;23;20031;-78
2022/12/01 07:42:05;;;;;;;;;;;;;;;;;;6092705;23;19916;-77
2022/12/01 07:44:31;;;;;;;;;;;;;;;;;;6092545;23;19927;-78
2022/12/01 07:46:57;;;;;;;;;;;;;;;;;;6090044;23;19921;-78
2022/12/01 07:49:23;;;;;;;;;;;;;;;;;;6116766;23;19917;-78
2022/12/01 07:51:49;;;;;;;;;;;;;;;;;;6092292;23;19923;-78
2022/12/01 07:54:16;;;;;;;;;;;;;;;;;;6091111;23;19951;-78
2022/12/01 07:56:42;;;;;;;;;;;;;;;;;;6092562;23;20356;-78
2022/12/01 07:59:08;;;;;;;;;;;;;;;;;;6092162;23;19916;-78
2022/12/01 08:01:34;;;;;;;;;;;;;;;;;;6115934;23;20177;-78
2022/12/01 08:04:00;;;;;;;;;;;;;;;;;;6116140;23;19959;-77
2022/12/01 08:06:26;;;;;;;;;;;;;;;;;;6090112;23;20344;-77
2022/12/01 08:08:52;;;;;;;;;;;;;;;;;;6138343;23;20277;-78
2022/12/01 08:11:18;;;;;;;;;;;;;;;;;;6113036;23;19928;-78
2022/12/01 08:13:44;;;;;;;;;;;;;;;;;;6115853;23;19927;-78
2022/12/01 08:16:10;;;;;;;;;;;;;;;;;;6137789;23;19978;-78
2022/12/01 08:18:36;;;;;;;;;;;;;;;;;;6139563;23;19948;-78
2022/12/01 08:21:02;;;;;;;;;;;;;;;;;;6115203;23;20253;-78
2022/12/01 08:23:28;;;;;;;;;;;;;;;;;;6114839;23;19921;-79
2022/12/01 08:25:53;;;;;;;;;;;;;;;;;;6114605;23;19920;-78
2022/12/01 08:28:19;;;;;;;;;;;;;;;;;;6115125;23;20230;-79
2022/12/01 08:30:45;;;;;;;;;;;;;;;;;;6139977;23;19939;-79
2022/12/01 08:33:11;;;;;;;;;;;;;;;;;;6115183;23;19995;-78
2022/12/01 08:35:37;;;;;;;;;;;;;;;;;;6137951;23;20332;-76
2022/12/01 08:38:03;;;;;;;;;;;;;;;;;;6113416;23;19920;-78
2022/12/01 08:40:29;;;;;;;;;;;;;;;;;;6114200;23;19968;-78
2022/12/01 08:42:55;;;;;;;;;;;;;;;;;;6140109;23;19975;-79
2022/12/01 08:45:22;;;;;;;;;;;;;;;;;;6137060;23;19928;-80
2022/12/01 08:47:47;;;;;;;;;;;;;;;;;;6138416;23;19916;-79
2022/12/01 08:50:13;;;;;;;;;;;;;;;;;;6114482;23;19925;-77
2022/12/01 08:52:39;;;;;;;;;;;;;;;;;;6137385;23;20358;-77
2022/12/01 08:55:05;;;;;;;;;;;;;;;;;;6136888;23;20135;-80
2022/12/01 08:57:31;;;;;;;;;;;;;;;;;;6138375;23;20045;-81
2022/12/01 08:59:57;;;;;;;;;;;;;;;;;;6139880;23;19920;-80
2022/12/01 09:02:23;;;;;;;;;;;;;;;;;;6114218;23;19917;-79
2022/12/01 09:04:49;;;;;;;;;;;;;;;;;;6139471;23;19920;-78
2022/12/01 09:07:15;;;;;;;;;;;;;;;;;;6137016;23;19920;-79
2022/12/01 09:09:41;;;;;;;;;;;;;;;;;;6089202;23;19924;-79
2022/12/01 09:12:08;;;;;;;;;;;;;;;;;;6089977;23;20323;-80
2022/12/01 09:14:34;;;;;;;;;;;;;;;;;;6091356;23;20434;-81
2022/12/01 09:16:59;;;;;;;;;;;;;;;;;;6113498;23;20079;-76
2022/12/01 09:19:27;;;;;;;;;;;;;;;;;;6088480;23;19939;-77
2022/12/01 09:21:53;;;;;;;;;;;;;;;;;;6090630;23;19920;-76
2022/12/01 09:24:19;;;;;;;;;;;;;;;;;;6089984;23;19927;-77
2022/12/01 09:26:45;;;;;;;;;;;;;;;;;;6114205;23;19984;-77
2022/12/01 09:29:12;;;;;;;;;;;;;;;;;;6113889;23;19924;-78
2022/12/01 09:31:38;;;;;;;;;;;;;;;;;;6114864;23;19916;-78
2022/12/01 09:34:04;;;;;;;;;;;;;;;;;;6114552;23;20249;-78
2022/12/01 09:36:30;;;;;;;;;;;;;;;;;;6114729;23;20342;-78
2022/12/01 09:38:56;;;;;;;;;;;;;;;;;;6090228;23;19923;-77
2022/12/01 09:41:22;;;;;;;;;;;;;;;;;;6114657;23;19916;-77
2022/12/01 09:43:47;;;;;;;;;;;;;;;;;;6115337;23;19994;-77
2022/12/01 09:46:13;;;;;;;;;;;;;;;;;;6114770;23;19916;-78
2022/12/01 09:48:41;;;;;;;;;;;;;;;;;;6089045;23;20626;-77
2022/12/01 09:51:07;;;;;;;;;;;;;;;;;;6112138;23;19964;-77
2022/12/01 09:53:33;;;;;;;;;;;;;;;;;;6113328;23;20292;-78
2022/12/01 09:55:59;;;;;;;;;;;;;;;;;;6089329;23;19948;-78
2022/12/01 09:58:25;;;;;;;;;;;;;;;;;;6088552;23;19963;-80
2022/12/01 10:00:51;;;;;;;;;;;;;;;;;;6090164;23;19951;-81
2022/12/01 10:03:17;;;;;;;;;;;;;;;;;;6090023;23;19916;-77
2022/12/01 10:05:43;;;;;;;;;;;;;;;;;;6113645;23;20008;-78
2022/12/01 10:08:09;;;;;;;;;;;;;;;;;;6105716;23;20659;-78
2022/12/01 10:10:35;;;;;;;;;;;;;;;;;;6119733;23;19966;-77
2022/12/01 10:13:01;;;;;;;;;;;;;;;;;;6169791;23;20347;-78
2022/12/01 10:15:27;;;;;;;;;;;;;;;;;;6169122;23;19922;-77
2022/12/01 10:17:53;;;;;;;;;;;;;;;;;;6115823;23;19916;-78
2022/12/01 10:20:19;;;;;;;;;;;;;;;;;;6118356;23;19935;-77
2022/12/01 10:22:45;;;;;;;;;;;;;;;;;;6167522;23;19939;-77
2022/12/01 10:25:11;;;;;;;;;;;;;;;;;;6119025;23;19927;-77
2022/12/01 10:27:37;;;;;;;;;;;;;;;;;;6119813;23;19916;-77
2022/12/01 10:30:03;;;;;;;;;;;;;;;;;;6168193;23;19916;-76
2022/12/01 10:32:31;;;;;;;;;;;;;;;;;;6168062;23;20327;-76
2022/12/01 10:34:57;;;;;;;;;;;;;;;;;;6118431;23;19923;-78
2022/12/01 10:37:23;;;;;;;;;;;;;;;;;;6169272;23;19916;-78
2022/12/01 10:39:49;;;;;;;;;;;;;;;;;;6120053;23;20244;-79
2022/12/01 10:42:15;;;;;;;;;;;;;;;;;;6120562;23;19954;-77
2022/12/01 10:44:41;;;;;;;;;;;;;;;;;;6120454;23;20029;-78
2022/12/01 10:47:07;;;;;;;;;;;;;;;;;;6119724;23;19919;-78
2022/12/01 10:49:33;;;;;;;;;;;;;;;;;;6117969;23;20299;-77
2022/12/01 10:51:59;;;;;;;;;;;;;;;;;;6120760;23;19915;-77
2022/12/01 10:54:25;;;;;;;;;;;;;;;;;;6121562;23;20654;-76
2022/12/01 10:56:51;;;;;;;;;;;;;;;;;;6170918;23;19920;-75
2022/12/01 10:59:17;;;;;;;;;;;;;;;;;;6169429;23;19916;-75
2022/12/01 11:01:43;;;;;;;;;;;;;;;;;;6168348;23;19916;-77
2022/12/01 11:04:09;;;;;;;;;;;;;;;;;;6169044;23;20515;-77
2022/12/01 11:06:35;;;;;;;;;;;;;;;;;;6119542;23;20011;-77
2022/12/01 11:09:00;;;;;;;;;;;;;;;;;;6115655;23;20250;-77
2022/12/01 11:11:26;;;;;;;;;;;;;;;;;;6140177;23;19948;-78
2022/12/01 11:13:52;;;;;;;;;;;;;;;;;;6140866;23;19924;-78
2022/12/01 11:16:18;;;;;;;;;;;;;;;;;;6140772;23;19943;-77
2022/12/01 11:18:44;;;;;;;;;;;;;;;;;;6139613;23;19994;-76
2022/12/01 11:21:10;;;;;;;;;;;;;;;;;;6116608;23;20347;-76
2022/12/01 11:23:36;;;;;;;;;;;;;;;;;;6139514;23;20307;-77
2022/12/01 11:26:02;;;;;;;;;;;;;;;;;;6141016;23;19923;-77
2022/12/01 11:28:28;;;;;;;;;;;;;;;;;;6138803;23;20463;-75
2022/12/01 11:30:54;;;;;;;;;;;;;;;;;;6115890;23;19963;-76
2022/12/01 11:33:20;;;;;;;;;;;;;;;;;;6139035;23;19924;-77
2022/12/01 11:35:46;;;;;;;;;;;;;;;;;;6138725;23;19923;-78
2022/12/01 11:38:12;;;;;;;;;;;;;;;;;;6115742;23;20067;-76
2022/12/01 11:40:38;;;;;;;;;;;;;;;;;;6140811;23;19923;-76
2022/12/01 11:43:04;;;;;;;;;;;;;;;;;;6114366;23;19920;-76
2022/12/01 11:45:31;;;;;;;;;;;;;;;;;;6139696;23;20324;-75
2022/12/01 11:47:57;;;;;;;;;;;;;;;;;;6139189;23;19923;-77
2022/12/01 11:50:22;;;;;;;;;;;;;;;;;;6115003;23;19916;-78
2022/12/01 11:52:48;;;;;;;;;;;;;;;;;;6140470;23;19916;-77
2022/12/01 11:55:14;;;;;;;;;;;;;;;;;;6139378;23;20359;-75
2022/12/01 11:57:40;;;;;;;;;;;;;;;;;;6138340;23;19916;-75
2022/12/01 12:00:06;;;;;;;;;;;;;;;;;;6115323;23;19987;-76
2022/12/01 12:02:32;;;;;;;;;;;;;;;;;;6140342;23;19920;-75
2022/12/01 12:04:58;;;;;;;;;;;;;;;;;;6138945;23;19920;-76
2022/12/01 12:07:24;;;;;;;;;;;;;;;;;;6140762;23;19955;-76
2022/12/01 12:09:50;;;;;;;;;;;;;;;;;;6143831;23;19916;-75
2022/12/01 12:12:16;;;;;;;;;;;;;;;;;;6119360;23;20252;-76
2022/12/01 12:14:42;;;;;;;;;;;;;;;;;;6144307;23;19916;-75
2022/12/01 12:17:08;;;;;;;;;;;;;;;;;;6144071;23;19920;-75
2022/12/01 12:19:34;;;;;;;;;;;;;;;;;;6119673;23;19974;-76
2022/12/01 12:22:00;;;;;;;;;;;;;;;;;;6145919;23;20644;-76
2022/12/01 12:24:26;;;;;;;;;;;;;;;;;;6144636;23;20429;-76
2022/12/01 12:26:52;;;;;;;;;;;;;;;;;;6119768;23;19916;-76
2022/12/01 12:29:18;;;;;;;;;;;;;;;;;;6119862;23;20334;-76
2022/12/01 12:31:44;;;;;;;;;;;;;;;;;;6143818;23;20371;-76
2022/12/01 12:34:10;;;;;;;;;;;;;;;;;;6144114;23;19927;-75
2022/12/01 12:36:36;;;;;;;;;;;;;;;;;;6144956;23;19923;-75
2022/12/01 12:39:02;;;;;;;;;;;;;;;;;;6144460;23;19916;-76
2022/12/01 12:41:28;;;;;;;;;;;;;;;;;;6119966;23;19916;-76
2022/12/01 12:43:54;;;;;;;;;;;;;;;;;;6143422;23;19924;-75
2022/12/01 12:46:20;;;;;;;;;;;;;;;;;;6142949;23;20353;-75
2022/12/01 12:48:46;;;;;;;;;;;;;;;;;;6143566;23;19954;-75
2022/12/01 12:51:12;;;;;;;;;;;;;;;;;;6144021;23;19971;-76
2022/12/01 12:53:38;;;;;;;;;;;;;;;;;;6145035;23;19916;-76
2022/12/01 12:56:04;;;;;;;;;;;;;;;;;;6144481;23;19955;-76
2022/12/01 12:58:30;;;;;;;;;;;;;;;;;;6143991;23;20011;-76
2022/12/01 13:00:56;;;;;;;;;;;;;;;;;;6143815;23;20331;-76
2022/12/01 13:03:22;;;;;;;;;;;;;;;;;;6143382;23;19916;-77
2022/12/01 13:05:48;;;;;;;;;;;;;;;;;;6143385;23;19920;-76
2022/12/01 13:08:14;;;;;;;;;;;;;;;;;;6144319;23;19924;-75
2022/12/01 13:10:40;;;;;;;;;;;;;;;;;;6144332;23;19923;-75
2022/12/01 13:13:05;;;;;;;;;;;;;;;;;;6142121;23;20084;-75
2022/12/01 13:15:31;;;;;;;;;;;;;;;;;;6143266;23;19943;-76
2022/12/01 13:17:57;;;;;;;;;;;;;;;;;;6143207;23;19916;-77
2022/12/01 13:20:23;;;;;;;;;;;;;;;;;;6119154;23;20035;-77
2022/12/01 13:22:49;;;;;;;;;;;;;;;;;;6118225;23;19948;-76
2022/12/01 13:25:15;;;;;;;;;;;;;;;;;;6144242;23;19969;-75
2022/12/01 13:27:41;;;;;;;;;;;;;;;;;;6142918;23;19922;-75
2022/12/01 13:30:07;;;;;;;;;;;;;;;;;;6144054;23;19938;-77
2022/12/01 13:32:33;;;;;;;;;;;;;;;;;;6169275;23;19933;-76
2022/12/01 13:34:59;;;;;;;;;;;;;;;;;;6143829;23;19979;-77
2022/12/01 13:37:25;;;;;;;;;;;;;;;;;;6143250;23;19923;-77
2022/12/01 13:39:51;;;;;;;;;;;;;;;;;;6119252;23;20018;-77
2022/12/01 13:42:17;;;;;;;;;;;;;;;;;;6119482;23;19948;-77
2022/12/01 13:44:43;;;;;;;;;;;;;;;;;;6144020;23;19924;-76
2022/12/01 13:47:09;;;;;;;;;;;;;;;;;;6143435;23;19936;-77
2022/12/01 13:49:39;;;;;;;;;;;;;;;;;;6118480;23;20311;-78
2022/12/01 13:52:05;;;;;;;;;;;;;;;;;;6143558;23;20300;-77
2022/12/01 13:54:33;;;;;;;;;;;;;;;;;;6144742;23;19957;-77
2022/12/01 13:56:59;;;;;;;;;;;;;;;;;;6119265;23;19927;-77
2022/12/01 13:59:25;;;;;;;;;;;;;;;;;;6144545;23;20640;-77
2022/12/01 14:01:50;;;;;;;;;;;;;;;;;;6119240;23;19943;-77
2022/12/01 14:04:16;;;;;;;;;;;;;;;;;;6144585;23;19974;-78
2022/12/01 14:06:45;;;;;;;;;;;;;;;;;;6143333;23;19922;-77
2022/12/01 14:09:11;;;;;;;;;;;;;;;;;;6144302;23;20310;-78
2022/12/01 14:11:37;;;;;;;;;;;;;;;;;;6142960;23;20039;-79
2022/12/01 14:14:03;;;;;;;;;;;;;;;;;;6144982;23;19923;-76
2022/12/01 14:16:29;;;;;;;;;;;;;;;;;;6145809;23;20290;-76
2022/12/01 14:18:55;;;;;;;;;;;;;;;;;;6146537;23;19954;-76
2022/12/01 14:21:21;;;;;;;;;;;;;;;;;;6145892;23;20231;-77
2022/12/01 14:23:47;;;;;;;;;;;;;;;;;;6145862;23;19950;-77
2022/12/01 14:26:13;;;;;;;;;;;;;;;;;;6146117;23;20384;-76
2022/12/01 14:28:39;;;;;;;;;;;;;;;;;;6146294;23;20046;-77
2022/12/01 14:31:05;;;;;;;;;;;;;;;;;;6145901;23;20847;-77
2022/12/01 14:33:31;;;;;;;;;;;;;;;;;;6120484;23;19998;-77
2022/12/01 14:35:57;;;;;;;;;;;;;;;;;;6121538;23;20408;-76
2022/12/01 14:38:23;;;;;;;;;;;;;;;;;;6121377;23;20527;-77
2022/12/01 14:40:48;;;;;;;;;;;;;;;;;;6120665;23;19923;-77
2022/12/01 14:45:59;;;;;;;;;;;;;;;;;;6146419;23;20034;-77
2022/12/01 14:48:25;;;;;;;;;;;;;;;;;;6144187;23;19951;-77
2022/12/01 14:50:51;;;;;;;;;;;;;;;;;;6142391;23;20324;-79
2022/12/01 14:53:17;;;;;;;;;;;;;;;;;;6142725;23;20320;-80
2022/12/01 14:55:43;;;;;;;;;;;;;;;;;;6145520;23;19982;-80
2022/12/01 14:58:09;;;;;;;;;;;;;;;;;;6119696;23;20414;-81
2022/12/01 15:00:35;;;;;;;;;;;;;;;;;;6145565;23;19952;-81
2022/12/01 15:03:01;;;;;;;;;;;;;;;;;;6145422;23;19920;-80
2022/12/01 15:05:27;;;;;;;;;;;;;;;;;;6145243;23;19916;-79
2022/12/01 15:07:53;;;;;;;;;;;;;;;;;;6143914;23;19959;-80
2022/12/01 15:10:19;;;;;;;;;;;;;;;;;;6118233;23;20445;-78
2022/12/01 15:12:44;;;;;;;;;;;;;;;;;;6145284;23;20255;-80
2022/12/01 15:15:10;;;;;;;;;;;;;;;;;;6142945;23;19967;-78
2022/12/01 15:17:37;;;;;;;;;;;;;;;;;;6144965;23;19916;-79
2022/12/01 15:20:02;;;;;;;;;;;;;;;;;;6119228;23;19916;-79
2022/12/01 15:22:29;;;;;;;;;;;;;;;;;;6144187;23;20350;-79
2022/12/01 15:24:55;;;;;;;;;;;;;;;;;;6145203;23;19931;-80
2022/12/01 15:27:20;;;;;;;;;;;;;;;;;;6144250;23;20239;-80
2022/12/01 15:29:46;;;;;;;;;;;;;;;;;;6120259;23;19923;-79
2022/12/01 15:32:12;;;;;;;;;;;;;;;;;;6144165;23;19927;-79
2022/12/01 15:34:38;;;;;;;;;;;;;;;;;;6117458;23;19915;-78
2022/12/01 15:37:04;;;;;;;;;;;;;;;;;;6143007;23;19920;-78
2022/12/01 15:39:30;;;;;;;;;;;;;;;;;;6142895;23;19939;-79
2022/12/01 15:41:56;;;;;;;;;;;;;;;;;;6144992;23;19979;-79
2022/12/01 15:44:22;;;;;;;;;;;;;;;;;;6119277;23;19927;-82
2022/12/01 15:46:48;;;;;;;;;;;;;;;;;;6117403;23;19998;-79
2022/12/01 15:49:14;;;;;;;;;;;;;;;;;;6143818;23;20025;-82
2022/12/01 15:51:40;;;;;;;;;;;;;;;;;;6119922;23;19998;-80
2022/12/01 15:54:06;;;;;;;;;;;;;;;;;;6144542;23;20243;-80
2022/12/01 15:56:32;;;;;;;;;;;;;;;;;;6143290;23;19923;-80
2022/12/01 15:58:58;;;;;;;;;;;;;;;;;;6143334;23;19983;-81
2022/12/01 16:01:23;;;;;;;;;;;;;;;;;;6119874;23;20815;-80
2022/12/01 16:03:49;;;;;;;;;;;;;;;;;;6142915;23;19920;-80
2022/12/01 16:06:16;;;;;;;;;;;;;;;;;;6119261;23;19916;-80
2022/12/01 16:08:41;;;;;;;;;;;;;;;;;;6142387;23;20303;-80
2022/12/01 16:11:07;;;;;;;;;;;;;;;;;;6119919;23;20343;-80
2022/12/01 16:13:33;;;;;;;;;;;;;;;;;;6142175;23;19982;-80
2022/12/01 16:15:59;;;;;;;;;;;;;;;;;;6144204;23;19959;-79
2022/12/01 16:18:25;;;;;;;;;;;;;;;;;;6118812;23;19920;-79
2022/12/01 16:20:51;;;;;;;;;;;;;;;;;;6143851;23;20467;-80
2022/12/01 16:23:17;;;;;;;;;;;;;;;;;;6142935;23;19919;-80
2022/12/01 16:25:43;;;;;;;;;;;;;;;;;;6144567;23;19963;-80
2022/12/01 16:28:09;;;;;;;;;;;;;;;;;;6144686;23;19916;-80
2022/12/01 16:30:35;;;;;;;;;;;;;;;;;;6144154;23;20327;-80
2022/12/01 16:33:01;;;;;;;;;;;;;;;;;;6142648;23;20054;-80
2022/12/01 16:35:29;;;;;;;;;;;;;;;;;;6143697;23;20498;-80
2022/12/01 16:37:55;;;;;;;;;;;;;;;;;;6119365;23;19955;-80
2022/12/01 16:40:21;;;;;;;;;;;;;;;;;;6118926;23;19991;-80
2022/12/01 16:42:48;;;;;;;;;;;;;;;;;;6118411;23;19916;-82
2022/12/01 16:45:14;;;;;;;;;;;;;;;;;;6143060;23;19970;-80
